createdAt,value
2018-07-01T00:01:08.839Z,1.70
2018-07-01T00:03:36.924Z,1.30
2018-07-01T00:06:04.996Z,1.60
2018-07-01T00:08:33.150Z,1.80
2018-07-01T00:11:01.266Z,1.90
2018-07-01T00:13:29.348Z,2.00
2018-07-01T00:15:57.473Z,1.80
2018-07-01T00:18:25.574Z,1.40
2018-07-01T00:20:53.727Z,1.73
2018-07-01T00:23:21.831Z,1.90
2018-07-01T00:25:49.922Z,1.63
2018-07-01T00:28:17.997Z,1.60
2018-07-01T00:30:46.154Z,1.60
2018-07-01T00:33:14.049Z,1.37
2018-07-01T00:35:42.168Z,1.07
2018-07-01T00:38:10.294Z,1.70
2018-07-01T00:40:38.398Z,1.50
2018-07-01T00:43:06.504Z,1.50
2018-07-01T00:45:34.594Z,1.20
2018-07-01T00:48:02.563Z,1.30
2018-07-01T00:50:30.649Z,1.40
2018-07-01T00:52:58.747Z,1.20
2018-07-01T00:55:26.897Z,1.30
2018-07-01T00:57:54.998Z,1.20
2018-07-01T01:00:28.517Z,1.23
2018-07-01T01:02:56.646Z,1.00
2018-07-01T01:05:24.930Z,1.10
2018-07-01T01:07:52.996Z,1.07
2018-07-01T01:10:20.912Z,1.30
2018-07-01T01:12:49.402Z,1.20
2018-07-01T01:15:17.536Z,1.40
2018-07-01T01:17:45.615Z,1.60
2018-07-01T01:20:13.714Z,1.47
2018-07-01T01:22:41.786Z,1.60
2018-07-01T01:25:09.955Z,1.80
2018-07-01T01:27:38.031Z,1.30
2018-07-01T01:30:06.172Z,1.10
2018-07-01T01:32:34.258Z,1.30
2018-07-01T01:35:02.346Z,1.30
2018-07-01T01:37:30.461Z,1.20
2018-07-01T01:39:58.666Z,0.97
2018-07-01T01:42:31.981Z,1.07
2018-07-01T01:45:03.715Z,1.10
2018-07-01T01:47:37.106Z,1.30
2018-07-01T01:50:15.211Z,1.27
2018-07-01T01:52:49.601Z,1.33
2018-07-01T01:55:21.518Z,1.10
2018-07-01T01:57:55.072Z,1.37
2018-07-01T02:00:27.798Z,1.30
2018-07-01T02:04:03.170Z,1.10
2018-07-01T02:06:35.510Z,1.30
2018-07-01T02:09:07.792Z,1.30
2018-07-01T02:11:40.171Z,1.20
2018-07-01T02:14:12.035Z,1.27
2018-07-01T02:16:43.179Z,1.10
2018-07-01T02:19:11.306Z,1.20
2018-07-01T02:21:39.381Z,1.13
2018-07-01T02:24:11.411Z,1.30
2018-07-01T02:26:39.550Z,1.20
2018-07-01T02:29:07.638Z,1.30
2018-07-01T02:31:35.724Z,1.13
2018-07-01T02:34:03.828Z,1.20
2018-07-01T02:36:31.879Z,1.10
2018-07-01T02:38:59.981Z,1.03
2018-07-01T02:41:28.039Z,1.10
2018-07-01T02:43:56.210Z,1.20
2018-07-01T02:46:24.319Z,1.30
2018-07-01T02:48:52.362Z,1.00
2018-07-01T02:51:20.439Z,1.10
2018-07-01T02:53:48.592Z,1.37
2018-07-01T02:56:16.625Z,1.33
2018-07-01T02:58:44.752Z,1.47
2018-07-01T03:01:12.810Z,1.30
2018-07-01T03:03:40.892Z,1.37
2018-07-01T03:06:08.955Z,1.03
2018-07-01T03:08:37.025Z,1.20
2018-07-01T03:11:05.138Z,1.27
2018-07-01T03:13:33.238Z,1.20
2018-07-01T03:16:01.343Z,1.10
2018-07-01T03:18:29.642Z,1.50
2018-07-01T03:20:57.722Z,1.40
2018-07-01T03:23:25.831Z,1.50
2018-07-01T03:25:53.924Z,1.40
2018-07-01T03:28:22.043Z,1.57
2018-07-01T03:30:50.458Z,1.20
2018-07-01T03:33:18.519Z,1.30
2018-07-01T03:35:46.623Z,1.40
2018-07-01T03:38:14.742Z,1.23
2018-07-01T03:40:42.836Z,1.30
2018-07-01T03:43:10.936Z,1.40
2018-07-01T03:45:39.258Z,1.17
2018-07-01T03:48:07.514Z,1.47
2018-07-01T03:50:35.591Z,1.30
2018-07-01T03:53:03.530Z,1.43
2018-07-01T03:55:31.629Z,1.20
2018-07-01T03:57:59.827Z,1.30
2018-07-01T04:00:27.939Z,1.40
2018-07-01T04:02:56.021Z,1.50
2018-07-01T04:05:24.146Z,1.37
2018-07-01T04:07:52.217Z,1.10
2018-07-01T04:10:20.314Z,1.50
2018-07-01T04:12:48.425Z,1.30
2018-07-01T04:15:16.530Z,1.30
2018-07-01T04:17:44.575Z,1.40
2018-07-01T04:20:12.686Z,1.50
2018-07-01T04:22:40.767Z,1.80
2018-07-01T04:25:08.917Z,1.30
2018-07-01T04:27:37.035Z,1.50
2018-07-01T04:30:05.669Z,1.60
2018-07-01T04:32:33.771Z,1.20
2018-07-01T04:35:01.875Z,1.23
2018-07-01T04:37:29.976Z,1.40
2018-07-01T04:39:58.078Z,1.50
2018-07-01T04:42:26.163Z,1.30
2018-07-01T04:44:54.251Z,1.20
2018-07-01T04:47:22.337Z,1.27
2018-07-01T04:49:50.395Z,1.27
2018-07-01T04:52:18.487Z,1.20
2018-07-01T04:54:46.592Z,1.20
2018-07-01T04:57:14.691Z,1.30
2018-07-01T04:59:42.747Z,1.37
2018-07-01T05:02:10.888Z,1.23
2018-07-01T05:04:39.377Z,1.10
2018-07-01T05:07:07.473Z,1.30
2018-07-01T05:09:35.588Z,1.27
2018-07-01T05:12:03.682Z,1.20
2018-07-01T05:14:31.776Z,1.30
2018-07-01T05:16:59.901Z,1.27
2018-07-01T05:19:27.964Z,1.10
2018-07-01T05:21:56.255Z,1.00
2018-07-01T05:24:24.319Z,0.80
2018-07-01T05:26:52.456Z,1.20
2018-07-01T05:29:20.601Z,1.17
2018-07-01T05:31:48.712Z,1.10
2018-07-01T05:34:16.614Z,0.83
2018-07-01T05:36:44.743Z,1.00
2018-07-01T05:39:13.623Z,1.10
2018-07-01T05:41:41.737Z,0.83
2018-07-01T05:44:09.872Z,0.80
2018-07-01T05:46:38.183Z,1.20
2018-07-01T05:49:06.624Z,1.00
2018-07-01T05:51:34.713Z,0.80
2018-07-01T05:54:03.029Z,0.90
2018-07-01T05:56:31.295Z,0.80
2018-07-01T05:58:59.265Z,0.60
2018-07-01T06:01:27.399Z,0.70
2018-07-01T06:03:55.523Z,0.90
2018-07-01T06:06:23.475Z,0.80
2018-07-01T06:08:51.647Z,0.67
2018-07-01T06:11:19.725Z,0.70
2018-07-01T06:13:47.887Z,0.50
2018-07-01T06:16:16.301Z,0.70
2018-07-01T06:18:45.154Z,0.83
2018-07-01T06:21:13.234Z,0.90
2018-07-01T06:23:41.383Z,1.00
2018-07-01T06:26:09.531Z,0.63
2018-07-01T06:28:37.665Z,0.83
2018-07-01T06:31:06.211Z,1.00
2018-07-01T06:33:34.962Z,0.97
2018-07-01T06:36:03.065Z,0.70
2018-07-01T06:38:31.171Z,0.70
2018-07-01T06:40:59.439Z,0.67
2018-07-01T06:43:28.088Z,0.87
2018-07-01T06:45:56.204Z,0.70
2018-07-01T06:48:24.288Z,0.80
2018-07-01T06:50:52.756Z,1.00
2018-07-01T06:53:20.887Z,0.70
2018-07-01T06:55:48.990Z,1.20
2018-07-01T06:58:17.137Z,0.90
2018-07-01T07:00:45.203Z,0.80
2018-07-01T07:03:13.306Z,1.00
2018-07-01T07:05:41.450Z,0.93
2018-07-01T07:08:09.577Z,0.60
2018-07-01T07:10:37.834Z,0.83
2018-07-01T07:13:06.183Z,0.77
2018-07-01T07:15:34.531Z,0.80
2018-07-01T07:18:02.498Z,0.67
2018-07-01T07:20:30.638Z,0.70
2018-07-01T07:22:59.387Z,0.90
2018-07-01T07:25:27.531Z,0.70
2018-07-01T07:27:55.696Z,0.70
2018-07-01T07:30:23.794Z,0.57
2018-07-01T07:32:51.911Z,0.50
2018-07-01T07:35:20.043Z,0.80
2018-07-01T07:37:48.271Z,0.80
2018-07-01T07:40:16.343Z,0.90
2018-07-01T07:42:44.643Z,0.70
2018-07-01T07:45:12.768Z,0.80
2018-07-01T07:47:40.849Z,0.90
2018-07-01T07:50:09.063Z,0.80
2018-07-01T07:52:37.183Z,0.70
2018-07-01T07:55:05.418Z,0.60
2018-07-01T07:57:33.558Z,0.90
2018-07-01T08:00:01.768Z,0.90
2018-07-01T08:02:29.891Z,0.70
2018-07-01T08:04:58.022Z,0.73
2018-07-01T08:07:26.231Z,0.70
2018-07-01T08:09:54.359Z,0.77
2018-07-01T08:12:22.483Z,0.80
2018-07-01T08:14:50.634Z,0.37
2018-07-01T08:17:18.710Z,0.53
2018-07-01T08:19:46.810Z,0.53
2018-07-01T08:22:14.979Z,0.50
2018-07-01T08:24:43.126Z,0.70
2018-07-01T08:27:11.261Z,0.50
2018-07-01T08:29:39.395Z,0.60
2018-07-01T08:32:07.570Z,0.83
2018-07-01T08:34:35.747Z,0.60
2018-07-01T08:37:03.836Z,0.60
2018-07-01T08:39:31.943Z,0.90
2018-07-01T08:42:32.954Z,0.70
2018-07-01T08:45:01.980Z,0.77
2018-07-01T08:47:30.533Z,0.67
2018-07-01T08:49:58.625Z,0.73
2018-07-01T08:52:26.775Z,0.70
2018-07-01T08:54:54.846Z,0.80
2018-07-01T08:57:23.462Z,0.70
2018-07-01T08:59:51.666Z,0.70
2018-07-01T09:02:20.493Z,0.53
2018-07-01T09:04:48.630Z,0.70
2018-07-01T09:07:17.262Z,0.87
2018-07-01T09:09:45.474Z,0.70
2018-07-01T09:12:13.608Z,0.70
2018-07-01T09:14:41.712Z,0.57
2018-07-01T09:17:09.941Z,0.60
2018-07-01T09:19:38.090Z,0.60
2018-07-01T09:22:06.217Z,0.67
2018-07-01T09:24:34.332Z,0.70
2018-07-01T09:27:02.434Z,0.77
2018-07-01T09:29:31.418Z,0.80
2018-07-01T09:31:59.603Z,0.70
2018-07-01T09:34:28.469Z,0.70
2018-07-01T09:36:57.037Z,0.80
2018-07-01T09:39:25.513Z,0.73
2018-07-01T09:41:54.827Z,0.60
2018-07-01T09:44:22.985Z,0.70
2018-07-01T09:46:51.369Z,0.70
2018-07-01T09:49:19.518Z,0.50
2018-07-01T09:51:47.717Z,0.70
2018-07-01T09:54:15.822Z,0.57
2018-07-01T09:56:44.001Z,0.60
2018-07-01T09:59:12.174Z,0.60
2018-07-01T10:01:40.289Z,0.63
2018-07-01T10:04:08.385Z,0.60
2018-07-01T10:06:36.530Z,0.50
2018-07-01T10:09:07.973Z,0.70
2018-07-01T10:11:36.414Z,0.60
2018-07-01T10:14:05.246Z,0.67
2018-07-01T10:16:33.339Z,0.60
2018-07-01T10:19:01.469Z,0.60
2018-07-01T10:21:29.744Z,0.67
2018-07-01T10:23:57.866Z,0.83
2018-07-01T10:26:25.790Z,0.63
2018-07-01T10:29:02.932Z,0.50
2018-07-01T10:31:31.062Z,0.63
2018-07-01T10:33:59.202Z,0.50
2018-07-01T10:36:27.536Z,0.70
2018-07-01T10:38:55.750Z,0.90
2018-07-01T10:41:24.164Z,0.70
2018-07-01T10:43:52.243Z,0.47
2018-07-01T10:46:20.466Z,0.50
2018-07-01T10:48:48.610Z,0.70
2018-07-01T10:51:16.916Z,0.90
2018-07-01T10:53:45.047Z,0.60
2018-07-01T10:56:13.160Z,0.63
2018-07-01T10:58:41.364Z,0.50
2018-07-01T11:01:09.433Z,0.50
2018-07-01T11:03:37.562Z,1.00
2018-07-01T11:06:06.375Z,1.70
2018-07-01T11:08:35.004Z,2.53
2018-07-01T11:11:03.110Z,2.33
2018-07-01T11:13:31.430Z,1.30
2018-07-01T11:15:59.789Z,0.73
2018-07-01T11:18:28.453Z,0.77
2018-07-01T11:20:56.695Z,0.70
2018-07-01T11:23:24.817Z,0.70
2018-07-01T11:25:52.986Z,0.60
2018-07-01T11:28:21.087Z,0.60
2018-07-01T11:30:49.239Z,0.83
2018-07-01T11:33:17.364Z,1.00
2018-07-01T11:35:46.431Z,0.63
2018-07-01T11:38:14.573Z,0.60
2018-07-01T11:40:42.718Z,0.60
2018-07-01T11:43:10.971Z,0.50
2018-07-01T11:45:39.052Z,0.77
2018-07-01T11:48:07.175Z,0.50
2018-07-01T11:50:35.332Z,0.87
2018-07-01T11:53:03.571Z,0.50
2018-07-01T11:55:31.668Z,0.63
2018-07-01T11:57:59.919Z,0.60
2018-07-01T12:00:28.209Z,0.60
2018-07-01T12:02:56.552Z,0.70
2018-07-01T12:05:25.081Z,0.70
2018-07-01T12:07:53.306Z,0.80
2018-07-01T12:10:21.582Z,0.70
2018-07-01T12:12:49.714Z,0.50
2018-07-01T12:15:17.850Z,0.60
2018-07-01T12:17:46.211Z,0.80
2018-07-01T12:20:14.133Z,0.63
2018-07-01T12:22:42.277Z,0.60
2018-07-01T12:25:10.447Z,0.93
2018-07-01T12:27:39.100Z,0.60
2018-07-01T12:30:08.653Z,0.57
2018-07-01T12:32:36.923Z,1.00
2018-07-01T12:35:05.846Z,0.80
2018-07-01T12:37:34.073Z,0.60
2018-07-01T12:40:01.968Z,0.60
2018-07-01T12:42:30.107Z,0.50
2018-07-01T12:44:58.199Z,0.70
2018-07-01T12:47:26.568Z,0.77
2018-07-01T12:49:54.780Z,0.80
2018-07-01T12:52:22.915Z,0.70
2018-07-01T12:54:50.874Z,0.60
2018-07-01T12:57:18.999Z,0.60
2018-07-01T12:59:47.133Z,0.70
2018-07-01T13:02:22.466Z,0.80
2018-07-01T13:04:50.643Z,0.67
2018-07-01T13:07:18.802Z,0.60
2018-07-01T13:09:46.927Z,0.90
2018-07-01T13:12:15.733Z,0.67
2018-07-01T13:14:44.939Z,0.70
2018-07-01T13:17:13.083Z,0.80
2018-07-01T13:19:41.191Z,0.80
2018-07-01T13:22:09.294Z,0.60
2018-07-01T13:24:37.451Z,0.70
2018-07-01T13:27:05.717Z,0.80
2018-07-01T13:29:33.817Z,0.70
2018-07-01T13:32:01.729Z,1.03
2018-07-01T13:34:29.890Z,0.80
2018-07-01T13:36:58.043Z,0.70
2018-07-01T13:39:26.177Z,0.90
2018-07-01T13:41:54.324Z,0.50
2018-07-01T13:44:22.484Z,0.73
2018-07-01T13:46:50.614Z,0.80
2018-07-01T13:49:18.752Z,0.90
2018-07-01T13:51:46.859Z,0.60
2018-07-01T13:54:15.084Z,0.80
2018-07-01T13:56:43.242Z,0.67
2018-07-01T13:59:11.427Z,0.80
2018-07-01T14:01:39.599Z,0.77
2018-07-01T14:04:08.033Z,0.80
2018-07-01T14:06:36.163Z,0.80
2018-07-01T14:09:07.657Z,1.00
2018-07-01T14:11:35.784Z,0.80
2018-07-01T14:14:04.111Z,0.63
2018-07-01T14:16:32.149Z,0.60
2018-07-01T14:19:00.287Z,0.67
2018-07-01T14:21:28.375Z,0.70
2018-07-01T14:23:56.511Z,0.50
2018-07-01T14:26:24.610Z,0.70
2018-07-01T14:28:52.738Z,0.77
2018-07-01T14:31:20.871Z,0.70
2018-07-01T14:33:48.981Z,0.70
2018-07-01T14:36:17.205Z,0.77
2018-07-01T14:38:45.401Z,0.43
2018-07-01T14:41:13.503Z,0.83
2018-07-01T14:43:41.723Z,0.70
2018-07-01T14:46:09.810Z,0.83
2018-07-01T14:48:37.932Z,0.90
2018-07-01T14:51:06.402Z,0.80
2018-07-01T14:53:34.559Z,0.80
2018-07-01T14:56:02.754Z,0.80
2018-07-01T14:58:30.673Z,0.80
2018-07-01T15:00:59.228Z,0.83
2018-07-01T15:03:27.448Z,0.60
2018-07-01T15:05:55.680Z,0.90
2018-07-01T15:08:23.878Z,0.70
2018-07-01T15:10:51.960Z,0.80
2018-07-01T15:13:20.117Z,1.03
2018-07-01T15:15:48.279Z,0.83
2018-07-01T15:18:16.634Z,0.70
2018-07-01T15:20:44.857Z,0.77
2018-07-01T15:23:12.979Z,0.80
2018-07-01T15:25:41.158Z,0.77
2018-07-01T15:28:09.322Z,0.90
2018-07-01T15:30:37.525Z,0.80
2018-07-01T15:33:05.659Z,0.70
2018-07-01T15:35:33.906Z,1.00
2018-07-01T15:38:02.204Z,1.30
2018-07-01T15:40:30.487Z,1.00
2018-07-01T15:42:58.578Z,1.00
2018-07-01T15:45:26.773Z,0.90
2018-07-01T15:47:54.928Z,0.93
2018-07-01T15:50:23.265Z,0.97
2018-07-01T15:52:51.474Z,0.87
2018-07-01T15:55:19.580Z,1.03
2018-07-01T15:57:47.728Z,0.83
2018-07-01T16:00:15.887Z,0.80
2018-07-01T16:02:44.054Z,0.70
2018-07-01T16:05:12.326Z,0.87
2018-07-01T16:07:40.503Z,0.83
2018-07-01T16:10:08.677Z,1.00
2018-07-01T16:12:36.870Z,0.90
2018-07-01T16:15:05.086Z,0.90
2018-07-01T16:17:33.275Z,1.20
2018-07-01T16:20:01.472Z,0.87
2018-07-01T16:22:29.663Z,0.80
2018-07-01T16:25:03.428Z,0.90
2018-07-01T16:27:34.029Z,0.60
2018-07-01T16:30:08.853Z,0.87
2018-07-01T16:32:37.341Z,0.60
2018-07-01T16:35:05.786Z,0.70
2018-07-01T16:37:34.048Z,0.60
2018-07-01T16:40:02.470Z,0.70
2018-07-01T16:42:30.647Z,0.60
2018-07-01T16:44:58.850Z,0.70
2018-07-01T16:47:27.001Z,0.60
2018-07-01T16:49:55.122Z,0.60
2018-07-01T16:52:23.873Z,0.90
2018-07-01T16:54:52.012Z,0.80
2018-07-01T16:57:20.170Z,1.00
2018-07-01T16:59:48.289Z,0.90
2018-07-01T17:02:16.406Z,0.77
2018-07-01T17:04:44.616Z,0.60
2018-07-01T17:07:12.785Z,0.70
2018-07-01T17:09:41.277Z,0.70
2018-07-01T17:12:09.345Z,1.13
2018-07-01T17:14:37.476Z,0.80
2018-07-01T17:17:05.650Z,1.00
2018-07-01T17:19:33.838Z,0.60
2018-07-01T17:22:01.735Z,0.80
2018-07-01T17:24:29.860Z,0.73
2018-07-01T17:26:58.293Z,0.80
2018-07-01T17:29:26.380Z,0.90
2018-07-01T17:32:00.093Z,0.80
2018-07-01T17:34:28.195Z,1.20
2018-07-01T17:36:56.303Z,0.90
2018-07-01T17:39:24.434Z,1.17
2018-07-01T17:41:53.017Z,0.73
2018-07-01T17:44:20.993Z,0.80
2018-07-01T17:46:49.148Z,0.73
2018-07-01T17:49:17.377Z,0.50
2018-07-01T17:51:45.415Z,0.60
2018-07-01T17:54:13.519Z,0.90
2018-07-01T17:56:41.681Z,0.80
2018-07-01T17:59:10.081Z,1.00
2018-07-01T18:01:38.319Z,0.90
2018-07-01T18:04:06.464Z,0.70
2018-07-01T18:06:34.549Z,0.90
2018-07-01T18:09:02.810Z,0.90
2018-07-01T18:11:30.899Z,0.90
2018-07-01T18:13:59.050Z,1.30
2018-07-01T18:16:27.207Z,0.93
2018-07-01T18:18:55.344Z,0.70
2018-07-01T18:21:48.145Z,0.90
2018-07-01T18:24:11.119Z,1.20
2018-07-01T18:26:19.940Z,1.00
2018-07-01T18:28:59.155Z,0.73
2018-07-01T18:31:16.118Z,1.10
2018-07-01T18:33:44.345Z,1.00
2018-07-01T18:36:12.475Z,0.90
2018-07-01T18:38:40.576Z,0.80
2018-07-01T18:41:08.696Z,0.90
2018-07-01T18:43:37.804Z,1.20
2018-07-01T18:46:05.892Z,0.90
2018-07-01T18:48:33.995Z,1.00
2018-07-01T18:51:02.106Z,1.00
2018-07-01T18:53:30.192Z,0.70
2018-07-01T18:55:58.311Z,1.00
2018-07-01T18:58:26.698Z,0.90
2018-07-01T19:00:54.797Z,1.30
2018-07-01T19:03:22.894Z,1.00
2018-07-01T19:05:51.010Z,0.67
2018-07-01T19:08:19.116Z,1.10
2018-07-01T19:10:47.248Z,0.97
2018-07-01T19:13:15.467Z,1.00
2018-07-01T19:15:43.701Z,1.13
2018-07-01T19:18:11.818Z,0.80
2018-07-01T19:20:39.934Z,0.80
2018-07-01T19:23:08.172Z,0.83
2018-07-01T19:25:43.104Z,1.13
2018-07-01T19:28:11.298Z,1.00
2018-07-01T19:30:39.428Z,0.90
2018-07-01T19:33:07.569Z,1.20
2018-07-01T19:35:35.672Z,1.20
2018-07-01T19:38:03.547Z,0.80
2018-07-01T19:40:31.672Z,1.00
2018-07-01T19:42:59.858Z,1.00
2018-07-01T19:45:27.973Z,1.00
2018-07-01T19:47:56.209Z,1.17
2018-07-01T19:50:24.490Z,1.00
2018-07-01T19:52:52.420Z,1.20
2018-07-01T19:55:20.586Z,1.33
2018-07-01T19:57:49.318Z,1.47
2018-07-01T20:00:17.484Z,1.23
2018-07-01T20:02:45.639Z,1.60
2018-07-01T20:05:13.765Z,1.90
2018-07-01T20:07:42.042Z,1.70
2018-07-01T20:10:10.216Z,1.30
2018-07-01T20:12:38.123Z,1.20
2018-07-01T20:15:06.270Z,1.17
2018-07-01T20:17:34.473Z,1.40
2018-07-01T20:20:02.574Z,1.30
2018-07-01T20:22:30.747Z,1.30
2018-07-01T20:24:58.914Z,1.20
2018-07-01T20:27:27.006Z,1.30
2018-07-01T20:29:55.137Z,1.30
2018-07-01T20:32:23.273Z,1.50
2018-07-01T20:34:51.472Z,1.03
2018-07-01T20:37:19.538Z,1.30
2018-07-01T20:39:47.623Z,1.40
2018-07-01T20:42:15.523Z,1.13
2018-07-01T20:44:43.658Z,1.60
2018-07-01T20:47:11.568Z,1.50
2018-07-01T20:49:39.625Z,1.33
2018-07-01T20:52:07.756Z,1.70
2018-07-01T20:54:35.882Z,1.20
2018-07-01T20:57:04.303Z,1.50
2018-07-01T20:59:32.386Z,1.57
2018-07-01T21:02:00.493Z,1.60
2018-07-01T21:04:28.766Z,1.60
2018-07-01T21:06:57.040Z,1.50
2018-07-01T21:09:25.163Z,1.37
2018-07-01T21:11:53.329Z,1.60
2018-07-01T21:14:21.411Z,1.20
2018-07-01T21:16:49.577Z,1.40
2018-07-01T21:19:17.689Z,1.30
2018-07-01T21:21:45.835Z,1.30
2018-07-01T21:24:14.040Z,1.03
2018-07-01T21:26:42.162Z,1.13
2018-07-01T21:29:10.666Z,1.43
2018-07-01T21:31:38.770Z,1.70
2018-07-01T21:34:06.891Z,1.17
2018-07-01T21:36:35.018Z,1.20
2018-07-01T21:39:03.440Z,1.20
2018-07-01T21:41:31.579Z,1.40
2018-07-01T21:43:59.498Z,1.50
2018-07-01T21:46:27.615Z,1.60
2018-07-01T21:48:55.752Z,1.60
2018-07-01T21:51:23.878Z,1.43
2018-07-01T21:53:52.036Z,1.60
2018-07-01T21:56:20.179Z,1.40
2018-07-01T21:58:48.348Z,1.20
2018-07-01T22:01:16.560Z,1.10
2018-07-01T22:03:44.565Z,1.40
2018-07-01T22:06:12.749Z,1.27
2018-07-01T22:08:40.871Z,1.40
2018-07-01T22:11:52.329Z,1.33
2018-07-01T22:14:33.068Z,1.43
2018-07-01T22:17:01.670Z,1.60
2018-07-01T22:19:29.881Z,1.40
2018-07-01T22:21:58.576Z,1.50
2018-07-01T22:24:30.853Z,1.50
2018-07-01T22:26:58.992Z,1.33
2018-07-01T22:29:27.124Z,1.10
2018-07-01T22:31:55.220Z,1.10
2018-07-01T22:34:23.739Z,1.23
2018-07-01T22:36:52.179Z,1.20
2018-07-01T22:39:21.369Z,1.10
2018-07-01T22:41:50.059Z,1.10
2018-07-01T22:44:18.136Z,1.17
2018-07-01T22:46:46.862Z,1.20
2018-07-01T22:49:15.033Z,1.20
2018-07-01T22:51:43.278Z,1.30
2018-07-01T22:54:11.520Z,1.00
2018-07-01T22:56:39.695Z,1.20
2018-07-01T22:59:07.873Z,1.40
2018-07-01T23:01:37.568Z,1.20
2018-07-01T23:04:05.777Z,1.07
2018-07-01T23:06:33.887Z,1.10
2018-07-01T23:09:02.020Z,1.10
2018-07-01T23:11:30.173Z,1.10
2018-07-01T23:13:58.278Z,1.07
2018-07-01T23:16:26.483Z,1.10
2018-07-01T23:18:54.617Z,1.07
2018-07-01T23:21:22.760Z,0.90
2018-07-01T23:23:50.838Z,1.07
2018-07-01T23:26:18.973Z,1.10
2018-07-01T23:28:47.078Z,1.10
2018-07-01T23:31:15.177Z,0.70
2018-07-01T23:33:43.273Z,1.30
2018-07-01T23:36:11.453Z,0.90
2018-07-01T23:38:39.551Z,1.07
2018-07-01T23:41:07.673Z,1.10
2018-07-01T23:43:35.817Z,1.20
2018-07-01T23:46:03.916Z,0.90
2018-07-01T23:48:32.088Z,1.20
2018-07-01T23:51:00.185Z,1.00
2018-07-01T23:53:28.261Z,1.17
2018-07-01T23:55:56.367Z,1.23
2018-07-01T23:58:24.449Z,1.10
